Time;durP1;ratioP1;P1;durP2;ratioP2;P2;SDS_P1;SDS_P2;PMS_P1;PMS_P2;Temp;Humidity;BMP_temperature;BMP_pressure;BME280_temperature;BME280_humidity;BME280_pressure;Samples;Min_cycle;Max_cycle;Signal;HPM_P1;HPM_P2
2021/06/12 00:00:41;;;;;;;0.30;0.30;;;20.80;50.80;;;;;;5033579;28;20094;-88
2021/06/12 00:03:07;;;;;;;0.47;0.30;;;20.80;51.60;;;;;;5033324;28;20042;-88
2021/06/12 00:05:33;;;;;;;0.40;0.40;;;20.70;51.50;;;;;;5034700;28;20025;-88
2021/06/12 00:07:59;;;;;;;0.60;0.60;;;20.60;52.00;;;;;;5033771;28;20394;-89
2021/06/12 00:10:33;;;;;;;0.43;0.43;;;20.60;52.20;;;;;;5035189;28;20260;-88
2021/06/12 00:13:00;;;;;;;0.43;0.43;;;20.50;52.90;;;;;;5033924;28;20029;-89
2021/06/12 00:15:27;;;;;;;;;;;20.50;52.70;;;;;;5034131;28;20025;-89
2021/06/12 00:17:52;;;;;;;;;;;20.60;52.10;;;;;;5034475;28;20287;-89
2021/06/12 00:20:37;;;;;;;0.10;0.10;;;20.40;53.60;;;;;;5026150;28;19980;-88
2021/06/12 00:23:04;;;;;;;0.47;0.40;;;20.40;54.10;;;;;;5029839;28;20033;-88
2021/06/12 00:25:30;;;;;;;0.32;0.32;;;20.00;54.70;;;;;;5029982;28;20022;-90
2021/06/12 00:28:00;;;;;;;0.28;0.28;;;19.90;55.70;;;;;;5030066;28;20100;-89
2021/06/12 00:30:28;;;;;;;0.28;0.28;;;20.00;55.80;;;;;;5014900;28;20021;-89
2021/06/12 00:32:54;;;;;;;0.15;0.15;;;19.90;55.90;;;;;;5015043;28;20022;-89
2021/06/12 00:35:21;;;;;;;0.17;0.13;;;19.80;56.70;;;;;;5029818;28;20018;-89
2021/06/12 00:37:47;;;;;;;0.60;0.45;;;19.90;57.10;;;;;;5028962;28;20538;-90
2021/06/12 00:40:14;;;;;;;0.20;0.20;;;19.70;57.20;;;;;;5029572;28;20026;-89
2021/06/12 00:42:41;;;;;;;0.82;0.35;;;19.80;57.70;;;;;;5029819;28;20273;-89
2021/06/12 00:45:13;;;;;;;0.20;0.20;;;19.80;57.70;;;;;;5027290;28;20029;-89
2021/06/12 00:47:39;;;;;;;0.60;0.40;;;19.80;57.70;;;;;;5049669;28;20033;-88
2021/06/12 00:50:07;;;;;;;2.72;0.75;;;19.80;58.30;;;;;;5049425;28;20487;-89
2021/06/12 00:52:33;;;;;;;0.30;0.30;;;19.60;72.10;;;;;;5049011;28;20120;-90
2021/06/12 00:55:00;;;;;;;0.82;0.40;;;19.70;58.90;;;;;;5035290;28;20532;-88
2021/06/12 00:57:26;;;;;;;2.67;0.35;;;19.50;60.00;;;;;;5034753;28;20026;-89
2021/06/12 00:59:52;;;;;;;0.40;0.40;;;19.50;60.70;;;;;;5034829;28;20029;-89
2021/06/12 01:02:17;;;;;;;0.23;0.23;;;19.20;61.30;;;;;;5049904;28;20083;-88
2021/06/12 01:04:43;;;;;;;0.30;0.30;;;19.10;62.20;;;;;;5033529;28;20261;-87
2021/06/12 01:07:09;;;;;;;0.40;0.40;;;18.90;64.60;;;;;;5047159;28;20075;-88
2021/06/12 01:09:35;;;;;;;0.20;0.20;;;19.10;63.10;;;;;;5045508;28;20029;-88
2021/06/12 01:12:10;;;;;;;0.20;0.20;;;19.20;63.20;;;;;;5011867;28;20030;-87
2021/06/12 01:14:44;;;;;;;0.17;0.17;;;19.10;65.20;;;;;;5013849;28;20025;-89
2021/06/12 01:17:21;;;;;;;1.75;0.95;;;19.00;63.90;;;;;;5012521;28;20140;-88
2021/06/12 01:19:55;;;;;;;1.00;0.85;;;19.10;64.60;;;;;;5014104;28;20021;-88
2021/06/12 01:22:27;;;;;;;0.55;0.55;;;19.00;65.00;;;;;;5013956;28;20033;-88
2021/06/12 01:24:55;;;;;;;1.17;0.73;;;19.00;65.30;;;;;;5031195;28;20384;-89
2021/06/12 01:27:48;;;;;;;0.50;0.50;;;18.90;65.30;;;;;;5033378;28;20044;-89
2021/06/12 01:30:30;;;;;;;0.47;0.47;;;18.80;66.80;;;;;;5032736;28;20028;-88
2021/06/12 01:33:00;;;;;;;0.32;0.32;;;18.90;65.80;;;;;;5048821;28;20021;-89
2021/06/12 01:35:48;;;;;;;0.25;0.25;;;18.80;66.50;;;;;;5049475;28;20021;-89
2021/06/12 01:38:23;;;;;;;0.70;0.70;;;19.00;66.20;;;;;;5049324;28;20029;-89
2021/06/12 01:40:50;;;;;;;0.20;0.20;;;18.80;67.60;;;;;;5034462;28;20022;-89
2021/06/12 01:43:18;;;;;;;0.55;0.55;;;18.70;67.80;;;;;;5049427;28;20517;-90
2021/06/12 01:45:47;;;;;;;0.40;0.40;;;18.70;68.70;;;;;;5034090;28;20430;-90
2021/06/12 01:48:15;;;;;;;0.28;0.20;;;18.60;68.60;;;;;;5049275;28;20072;-90
2021/06/12 01:50:41;;;;;;;0.55;0.55;;;18.60;69.30;;;;;;5033978;28;20025;-90
2021/06/12 01:53:08;;;;;;;0.28;0.28;;;18.40;70.10;;;;;;5048728;28;20037;-90
2021/06/12 01:55:36;;;;;;;1.25;0.93;;;18.30;70.60;;;;;;5049425;28;20431;-90
2021/06/12 01:58:07;;;;;;;0.40;0.40;;;18.50;70.10;;;;;;5049487;28;20099;-90
2021/06/12 02:00:33;;;;;;;0.40;0.40;;;18.60;69.60;;;;;;5049214;28;20052;-90
2021/06/12 02:03:00;;;;;;;0.30;0.30;;;18.80;69.20;;;;;;5048957;28;20050;-89
2021/06/12 02:05:28;;;;;;;0.20;0.20;;;18.70;69.50;;;;;;5033506;28;20299;-89
2021/06/12 02:07:55;;;;;;;0.40;0.40;;;18.70;70.00;;;;;;5048532;28;20029;-89
2021/06/12 02:10:27;;;;;;;0.40;0.20;;;18.50;70.50;;;;;;5048115;28;20036;-88
2021/06/12 02:12:55;;;;;;;0.82;0.82;;;18.60;70.20;;;;;;5048183;28;20474;-87
2021/06/12 02:15:22;;;;;;;2.83;0.70;;;18.60;70.60;;;;;;5032443;28;20525;-88
2021/06/12 02:17:51;;;;;;;0.35;0.30;;;18.40;71.60;;;;;;5033041;28;20032;-88
2021/06/12 02:20:18;;;;;;;0.45;0.45;;;18.50;72.50;;;;;;5032391;28;20049;-88
2021/06/12 02:22:47;;;;;;;0.98;0.65;;;18.40;71.60;;;;;;5031218;28;20022;-89
2021/06/12 02:25:14;;;;;;;0.77;0.77;;;18.30;72.70;;;;;;5048250;28;20026;-89
2021/06/12 02:27:44;;;;;;;0.45;0.45;;;18.20;72.90;;;;;;5032854;28;20104;-88
2021/06/12 02:30:11;;;;;;;0.70;0.30;;;18.10;73.60;;;;;;5032443;28;20033;-89
2021/06/12 02:32:44;;;;;;;0.17;0.17;;;18.20;73.60;;;;;;5032289;28;20104;-88
2021/06/12 02:35:11;;;;;;;0.40;0.20;;;18.00;74.50;;;;;;5031935;28;20033;-88
2021/06/12 02:37:42;;;;;;;0.52;0.52;;;18.10;74.10;;;;;;5031343;28;20018;-88
2021/06/12 02:40:08;;;;;;;3.63;1.08;;;18.00;75.00;;;;;;5032819;28;20029;-89
2021/06/12 02:42:35;;;;;;;0.22;0.20;;;17.80;76.30;;;;;;5027471;28;20494;-89
2021/06/12 02:45:04;;;;;;;;;;;17.90;75.70;;;;;;5012806;28;20037;-89
2021/06/12 02:47:31;;;;;;;0.55;0.55;;;17.70;76.80;;;;;;5012328;28;19910;-89
2021/06/12 02:49:57;;;;;;;;;;;17.70;77.80;;;;;;5027492;28;20037;-89
2021/06/12 02:52:28;;;;;;;0.32;0.32;;;17.70;80.00;;;;;;5010412;28;19905;-88
2021/06/12 02:55:01;;;;;;;0.25;0.25;;;17.40;80.00;;;;;;5027315;28;20033;-88
2021/06/12 02:57:27;;;;;;;0.10;0.10;;;17.40;80.70;;;;;;5027273;28;20025;-89
2021/06/12 02:59:55;;;;;;;1.45;1.05;;;17.40;84.60;;;;;;5027201;28;20026;-88
2021/06/12 03:02:22;;;;;;;0.55;0.55;;;17.30;81.70;;;;;;5027407;28;20045;-88
2021/06/12 03:04:48;;;;;;;;;;;17.30;82.90;;;;;;5029852;28;20032;-88
2021/06/12 03:07:14;;;;;;;0.38;0.38;;;17.10;84.50;;;;;;5012153;28;19905;-89
2021/06/12 03:09:44;;;;;;;0.30;0.20;;;17.30;84.10;;;;;;5011919;28;20503;-89
2021/06/12 03:12:11;;;;;;;0.20;0.20;;;17.30;93.50;;;;;;5027074;28;20026;-89
2021/06/12 03:14:39;;;;;;;0.15;0.15;;;17.40;83.70;;;;;;5026707;28;20443;-88
2021/06/12 03:17:07;;;;;;;1.85;0.57;;;17.60;83.30;;;;;;5011874;28;20034;-88
2021/06/12 03:19:34;;;;;;;0.25;0.25;;;17.60;83.50;;;;;;5026359;28;20080;-89
2021/06/12 03:22:02;;;;;;;0.40;0.40;;;17.60;83.40;;;;;;5044816;28;20022;-89
2021/06/12 03:24:29;;;;;;;0.30;0.30;;;17.50;84.00;;;;;;5031933;28;20253;-89
2021/06/12 03:27:00;;;;;;;0.15;0.15;;;17.40;84.70;;;;;;5029946;28;20032;-90
2021/06/12 03:29:28;;;;;;;1.17;0.75;;;17.50;84.50;;;;;;5029681;28;20040;-88
2021/06/12 03:31:55;;;;;;;0.15;0.15;;;17.40;84.40;;;;;;5029110;28;20442;-89
2021/06/12 03:34:21;;;;;;;0.30;0.30;;;17.30;85.50;;;;;;5030707;28;20030;-89
2021/06/12 03:36:47;;;;;;;0.80;0.52;;;17.20;85.70;;;;;;5029807;28;20038;-89
2021/06/12 03:39:13;;;;;;;0.38;0.38;;;17.30;86.20;;;;;;5030373;28;20061;-89
2021/06/12 03:41:39;;;;;;;0.20;0.20;;;17.20;86.50;;;;;;5029138;28;20423;-90
2021/06/12 03:44:06;;;;;;;0.17;0.17;;;17.10;87.20;;;;;;5047417;28;20061;-89
2021/06/12 03:46:32;;;;;;;0.35;0.35;;;17.40;86.20;;;;;;5032337;28;20021;-90
2021/06/12 03:49:00;;;;;;;0.55;0.55;;;17.30;87.20;;;;;;5047215;28;20034;-89
2021/06/12 03:51:27;;;;;;;0.22;0.22;;;17.30;87.10;;;;;;5047430;28;20124;-88
2021/06/12 03:53:53;;;;;;;;;;;17.10;87.60;;;;;;5048105;28;20029;-89
2021/06/12 03:56:22;;;;;;;0.17;0.17;;;17.20;88.50;;;;;;5031885;28;20052;-89
2021/06/12 03:58:49;;;;;;;1.08;0.50;;;17.20;88.70;;;;;;5031949;28;20061;-90
2021/06/12 04:01:17;;;;;;;0.65;0.65;;;17.10;88.90;;;;;;5031922;28;20035;-89
2021/06/12 04:03:44;;;;;;;0.57;0.40;;;17.10;89.90;;;;;;5046229;28;20029;-91
2021/06/12 04:06:11;;;;;;;0.30;0.30;;;16.90;90.30;;;;;;5031373;28;20605;-90
2021/06/12 04:08:37;;;;;;;0.35;0.35;;;17.10;89.50;;;;;;5046883;28;20055;-90
2021/06/12 04:11:04;;;;;;;0.47;0.47;;;17.20;89.60;;;;;;5046643;28;20479;-90
2021/06/12 04:13:30;;;;;;;0.40;0.40;;;17.20;90.20;;;;;;5046848;28;20029;-90
2021/06/12 04:15:56;;;;;;;0.57;0.52;;;17.00;90.60;;;;;;5048043;28;20594;-90
2021/06/12 04:18:22;;;;;;;0.33;0.33;;;17.00;90.50;;;;;;5034346;28;20039;-89
2021/06/12 04:20:48;;;;;;;0.77;0.40;;;17.10;91.00;;;;;;5050196;28;20083;-88
2021/06/12 04:23:14;;;;;;;0.40;0.40;;;17.60;90.50;;;;;;5050498;28;20021;-89
2021/06/12 04:25:39;;;;;;;0.10;0.10;;;17.70;89.80;;;;;;5033593;28;20040;-92
2021/06/12 04:28:06;;;;;;;0.40;0.40;;;18.20;87.90;;;;;;5050060;28;20479;-92
2021/06/12 04:30:32;;;;;;;0.75;0.65;;;18.70;85.30;;;;;;5050354;28;20124;-91
2021/06/12 04:33:00;;;;;;;0.30;0.30;;;18.80;84.50;;;;;;5048270;28;20100;-90
2021/06/12 04:35:29;;;;;;;0.30;0.30;;;18.90;84.60;;;;;;5031673;28;20064;-90
2021/06/12 04:37:59;;;;;;;0.50;0.50;;;18.90;85.00;;;;;;5026834;28;20025;-90
2021/06/12 04:40:34;;;;;;;0.17;0.17;;;19.10;84.70;;;;;;5027655;28;20029;-90
2021/06/12 04:43:06;;;;;;;0.00;0.00;;;19.50;82.80;;;;;;5026526;28;20112;-90
2021/06/12 04:45:33;;;;;;;0.55;0.55;;;19.80;81.50;;;;;;5026389;28;20156;-91
2021/06/12 04:48:00;;;;;;;;;;;20.20;79.10;;;;;;5026978;28;20060;-90
2021/06/12 04:50:28;;;;;;;0.63;0.43;;;20.00;77.90;;;;;;5009918;28;20020;-90
2021/06/12 04:52:54;;;;;;;2.13;1.02;;;20.40;76.40;;;;;;5011315;28;20049;-90
2021/06/12 04:55:19;;;;;;;1.90;0.20;;;20.70;75.90;;;;;;5011377;28;20026;-90
2021/06/12 04:57:45;;;;;;;1.23;0.50;;;20.70;76.70;;;;;;5011142;28;20033;-90
2021/06/12 05:00:13;;;;;;;0.40;0.40;;;20.70;77.10;;;;;;5011100;28;20026;-89
2021/06/12 05:02:39;;;;;;;0.17;0.15;;;21.00;77.30;;;;;;5020837;28;20422;-91
2021/06/12 05:05:09;;;;;;;0.38;0.38;;;21.20;74.90;;;;;;5030716;28;20029;-90
2021/06/12 05:07:35;;;;;;;0.57;0.40;;;21.20;75.50;;;;;;5031141;28;20057;-91
2021/06/12 05:10:03;;;;;;;0.20;0.20;;;21.40;74.30;;;;;;5030298;28;20071;-91
2021/06/12 05:12:29;;;;;;;0.17;0.17;;;21.70;73.60;;;;;;5031004;28;20041;-90
2021/06/12 05:14:59;;;;;;;0.85;0.70;;;21.80;71.80;;;;;;5029632;28;20403;-90
2021/06/12 05:17:26;;;;;;;0.45;0.22;;;21.80;71.00;;;;;;5031249;28;20022;-91
2021/06/12 05:19:52;;;;;;;0.30;0.30;;;22.10;71.40;;;;;;5029295;28;20756;-91
2021/06/12 05:22:26;;;;;;;0.03;0.03;;;22.10;72.00;;;;;;5030000;28;20028;-91
2021/06/12 05:24:53;;;;;;;0.30;0.30;;;22.50;70.20;;;;;;5011802;28;20038;-92
2021/06/12 05:27:19;;;;;;;2.97;0.85;;;22.30;70.50;;;;;;5019893;28;20034;-92
2021/06/12 05:29:46;;;;;;;0.17;0.17;;;22.40;69.30;;;;;;5028489;28;20166;-92
2021/06/12 05:32:12;;;;;;;2.53;1.08;;;22.70;68.50;;;;;;5019735;28;20029;-92
2021/06/12 05:34:38;;;;;;;0.40;0.20;;;22.90;67.40;;;;;;5043950;28;20030;-90
2021/06/12 05:37:04;;;;;;;0.85;0.50;;;23.10;67.90;;;;;;5046307;28;20029;-92
2021/06/12 05:39:30;;;;;;;0.20;0.20;;;23.20;64.50;;;;;;5030671;28;20037;-91
2021/06/12 05:41:56;;;;;;;0.60;0.47;;;23.40;64.00;;;;;;5029559;28;20071;-91
2021/06/12 05:44:22;;;;;;;0.25;0.25;;;23.60;75.90;;;;;;5047600;28;20091;-92
2021/06/12 05:46:50;;;;;;;0.20;0.20;;;23.80;62.60;;;;;;5047548;28;20053;-92
2021/06/12 05:49:19;;;;;;;0.38;0.38;;;23.60;64.60;;;;;;5041750;28;20475;-91
2021/06/12 05:51:46;;;;;;;0.22;0.22;;;23.90;62.60;;;;;;5040985;28;20022;-93
2021/06/12 05:54:11;;;;;;;1.00;0.43;;;23.90;62.50;;;;;;5021774;28;20034;-91
2021/06/12 05:56:37;;;;;;;0.13;0.13;;;24.30;61.40;;;;;;5025856;28;20032;-91
2021/06/12 05:59:04;;;;;;;0.10;0.10;;;24.10;59.70;;;;;;5044071;28;20030;-93
2021/06/12 06:01:30;;;;;;;0.32;0.22;;;24.40;59.40;;;;;;5030135;28;20028;-91
2021/06/12 06:03:56;;;;;;;11.25;0.45;;;24.70;58.70;;;;;;5020893;28;20039;-91
2021/06/12 06:06:22;;;;;;;0.10;0.10;;;24.80;59.40;;;;;;5038256;28;20372;-93
2021/06/12 06:08:49;;;;;;;0.55;0.52;;;24.70;57.40;;;;;;5030121;28;20113;-93
2021/06/12 06:11:15;;;;;;;0.10;0.10;;;24.90;57.80;;;;;;5036305;28;20059;-92
2021/06/12 06:13:42;;;;;;;;;;;25.40;58.90;;;;;;5021234;28;20120;-92
2021/06/12 06:16:08;;;;;;;0.10;0.10;;;25.70;57.60;;;;;;5026230;28;19909;-92
2021/06/12 06:18:35;;;;;;;0.57;0.40;;;25.50;56.50;;;;;;5012379;28;20036;-94
2021/06/12 06:21:03;;;;;;;0.20;0.13;;;26.40;54.80;;;;;;5027472;28;20025;-95
2021/06/12 06:23:29;;;;;;;0.13;0.13;;;26.60;51.20;;;;;;5021446;28;20116;-92
2021/06/12 06:25:57;;;;;;;0.25;0.25;;;27.10;52.30;;;;;;5023074;28;20113;-93
2021/06/12 06:28:24;;;;;;;0.20;0.20;;;27.00;51.30;;;;;;5006139;28;20403;-93
2021/06/12 06:30:56;;;;;;;0.40;0.40;;;27.40;49.70;;;;;;4997848;28;20491;-93
2021/06/12 06:33:25;;;;;;;0.30;0.30;;;27.80;49.40;;;;;;5021572;28;20030;-89
2021/06/12 06:35:55;;;;;;;0.20;0.20;;;27.80;47.70;;;;;;5021857;28;20116;-92
2021/06/12 06:38:22;;;;;;;0.10;0.10;;;28.00;48.10;;;;;;5018579;28;20022;-93
2021/06/12 06:40:53;;;;;;;0.45;0.40;;;29.10;46.00;;;;;;5038482;28;20033;-92
2021/06/12 06:43:25;;;;;;;0.00;0.00;;;28.70;45.40;;;;;;5014970;28;20037;-92
2021/06/12 06:45:52;;;;;;;0.00;0.00;;;28.80;44.80;;;;;;5016542;28;20033;-91
2021/06/12 06:48:23;;;;;;;0.30;0.20;;;29.00;42.90;;;;;;5021101;28;20438;-90
2021/06/12 06:50:50;;;;;;;0.10;0.10;;;29.50;40.90;;;;;;5020423;28;20573;-91
2021/06/12 06:53:17;;;;;;;0.43;0.43;;;29.70;40.80;;;;;;5039096;28;20029;-91
2021/06/12 06:55:43;;;;;;;0.70;0.28;;;29.70;40.90;;;;;;5021218;28;20585;-90
2021/06/12 06:58:10;;;;;;;0.10;0.10;;;30.00;36.60;;;;;;5012727;28;20048;-91
2021/06/12 07:00:36;;;;;;;1.88;1.27;;;29.40;34.80;;;;;;5033434;28;20028;-92
2021/06/12 07:03:03;;;;;;;0.28;0.20;;;29.70;34.30;;;;;;5026429;28;20152;-91
2021/06/12 07:05:29;;;;;;;0.30;0.30;;;29.60;33.70;;;;;;5010440;28;20041;-91
2021/06/12 07:07:56;;;;;;;0.60;0.40;;;29.70;34.80;;;;;;5036521;28;20033;-90
2021/06/12 07:10:23;;;;;;;0.57;0.57;;;29.90;33.90;;;;;;5021538;28;20538;-91
2021/06/12 07:12:50;;;;;;;0.20;0.20;;;31.20;30.00;;;;;;5020680;28;20033;-92
2021/06/12 07:15:17;;;;;;;0.10;0.10;;;31.90;27.70;;;;;;5014029;28;20107;-93
2021/06/12 07:18:41;;;;;;;0.13;0.13;;;33.10;28.30;;;;;;5033654;28;20696;-91
2021/06/12 07:21:06;;;;;;;;;;;32.90;22.80;;;;;;5026596;28;20026;-93
2021/06/12 07:23:32;;;;;;;0.25;0.25;;;33.20;23.80;;;;;;5027514;28;20004;-92
2021/06/12 07:25:58;;;;;;;0.00;0.00;;;32.10;23.00;;;;;;5027411;28;20025;-92
2021/06/12 07:28:24;;;;;;;0.05;0.05;;;32.40;22.00;;;;;;5027223;28;20041;-92
2021/06/12 07:30:50;;;;;;;0.20;0.20;;;33.70;22.30;;;;;;5027038;28;20025;-92
2021/06/12 07:33:16;;;;;;;0.28;0.28;;;34.40;19.70;;;;;;5027215;28;20025;-92
2021/06/12 07:35:42;;;;;;;0.00;0.00;;;34.10;21.10;;;;;;5027781;28;20048;-92
2021/06/12 07:38:09;;;;;;;0.10;0.08;;;33.40;18.90;;;;;;5028565;28;20048;-92
2021/06/12 07:40:35;;;;;;;1.88;1.02;;;34.00;18.90;;;;;;5028762;28;20053;-94
2021/06/12 07:43:01;;;;;;;0.25;0.20;;;35.20;14.50;;;;;;5028677;28;20033;-93
2021/06/12 07:45:27;;;;;;;0.00;0.00;;;36.30;10.50;;;;;;5029085;28;20104;-92
2021/06/12 07:47:54;;;;;;;0.15;0.15;;;35.30;11.60;;;;;;5028154;28;20033;-92
2021/06/12 07:50:20;;;;;;;0.35;0.20;;;35.70;15.70;;;;;;5027614;28;20028;-92
2021/06/12 07:52:45;;;;;;;0.20;0.20;;;35.60;11.10;;;;;;5031537;28;20112;-93
2021/06/12 07:55:12;;;;;;;0.13;0.13;;;35.50;11.00;;;;;;5031813;28;20056;-93
2021/06/12 07:57:38;;;;;;;0.55;0.55;;;35.30;11.20;;;;;;5032460;28;20032;-93
2021/06/12 08:00:05;;;;;;;0.88;0.20;;;36.50;9.10;;;;;;5032126;28;20029;-93
2021/06/12 08:02:31;;;;;;;0.25;0.25;;;36.80;8.70;;;;;;5032885;28;20439;-93
2021/06/12 08:04:56;;;;;;;0.00;0.00;;;37.30;8.70;;;;;;5030608;28;20026;-93
2021/06/12 08:07:23;;;;;;;0.30;0.10;;;37.70;6.70;;;;;;5031200;28;20034;-93
2021/06/12 08:09:50;;;;;;;0.10;0.10;;;38.00;8.30;;;;;;5031976;28;20033;-93
2021/06/12 08:12:16;;;;;;;0.28;0.28;;;39.00;2.90;;;;;;5030345;28;20025;-92
2021/06/12 08:14:43;;;;;;;0.63;0.40;;;37.70;5.10;;;;;;5029676;28;20418;-92
2021/06/12 08:17:09;;;;;;;0.10;0.10;;;35.20;6.90;;;;;;5030879;28;20040;-93
2021/06/12 08:19:36;;;;;;;0.10;0.10;;;35.90;8.50;;;;;;5030699;28;20429;-93
2021/06/12 08:22:02;;;;;;;0.15;0.15;;;37.30;8.40;;;;;;5030105;28;20025;-93
2021/06/12 08:24:28;;;;;;;0.65;0.47;;;35.60;8.00;;;;;;5031232;28;20112;-93
2021/06/12 08:26:53;;;;;;;0.15;0.15;;;36.10;7.60;;;;;;5031178;28;20222;-93
2021/06/12 08:29:19;;;;;;;0.00;0.00;;;37.00;5.80;;;;;;5030148;28;20792;-92
2021/06/12 08:31:45;;;;;;;0.80;0.65;;;37.40;4.40;;;;;;5031978;28;20034;-94
2021/06/12 08:34:11;;;;;;;0.20;0.20;;;38.30;3.60;;;;;;5031465;28;20037;-93
2021/06/12 08:36:37;;;;;;;0.30;0.30;;;38.80;3.30;;;;;;5031578;28;20514;-93
2021/06/12 08:39:03;;;;;;;0.30;0.20;;;39.70;1.00;;;;;;5030914;28;20071;-93
2021/06/12 08:41:29;;;;;;;0.30;0.30;;;38.70;4.10;;;;;;5030323;28;20128;-94
2021/06/12 08:43:58;;;;;;;0.22;0.20;;;38.00;2.30;;;;;;5032268;28;20089;-94
2021/06/12 08:46:26;;;;;;;0.30;0.30;;;41.10;1.00;;;;;;5032400;28;20029;-94
2021/06/12 08:48:52;;;;;;;0.10;0.10;;;39.60;1.60;;;;;;5032311;28;20084;-95
2021/06/12 08:51:21;;;;;;;0.10;0.10;;;40.70;1.00;;;;;;5032770;28;20021;-94
2021/06/12 08:53:49;;;;;;;0.10;0.10;;;42.20;1.00;;;;;;5032814;28;20549;-94
2021/06/12 08:56:15;;;;;;;0.20;0.20;;;42.00;1.00;;;;;;5033241;28;20032;-95
2021/06/12 08:58:41;;;;;;;0.10;0.10;;;40.90;1.00;;;;;;5033422;28;20069;-94
2021/06/12 09:01:07;;;;;;;0.15;0.10;;;41.00;1.00;;;;;;5033545;28;20048;-95
2021/06/12 09:03:41;;;;;;;0.20;0.20;;;42.30;1.00;;;;;;5010763;28;232164;-95
2021/06/12 09:06:08;;;;;;;0.20;0.20;;;41.80;1.00;;;;;;5034447;28;20025;-95
2021/06/12 09:08:37;;;;;;;0.38;0.20;;;42.30;1.00;;;;;;5034457;28;20121;-95
2021/06/12 09:11:07;;;;;;;0.10;0.10;;;40.60;1.00;;;;;;5034525;28;20029;-95
2021/06/12 09:13:48;;;;;;;0.10;0.10;;;39.70;1.00;;;;;;5051003;28;20053;-94
2021/06/12 09:16:33;;;;;;;0.00;0.00;;;40.50;1.00;;;;;;5050619;28;20033;-95
2021/06/12 09:19:09;;;;;;;0.63;0.30;;;40.50;1.00;;;;;;5034227;28;20498;-95
2021/06/12 09:21:43;;;;;;;0.00;0.00;;;41.00;1.00;;;;;;5050761;28;20025;-94
2021/06/12 09:24:27;;;;;;;0.10;0.10;;;38.80;1.00;;;;;;5034311;28;20025;-95
2021/06/12 09:26:58;;;;;;;0.20;0.20;;;40.30;1.00;;;;;;5034067;28;20029;-94
2021/06/12 09:29:39;;;;;;;0.50;0.40;;;38.40;1.00;;;;;;5033886;28;20032;-94
2021/06/12 09:32:20;;;;;;;0.20;0.10;;;39.30;1.00;;;;;;5034036;28;20036;-94
2021/06/12 09:34:52;;;;;;;0.55;0.25;;;39.40;1.00;;;;;;5034017;28;20112;-94
2021/06/12 09:37:21;;;;;;;0.20;0.20;;;40.10;1.00;;;;;;5033643;28;20029;-94
2021/06/12 09:40:16;;;;;;;0.10;0.10;;;39.80;1.00;;;;;;5034050;28;20026;-94
2021/06/12 09:42:51;;;;;;;0.10;0.10;;;40.40;1.00;;;;;;5036936;28;20030;-94
2021/06/12 09:45:17;;;;;;;;;;;39.70;1.00;;;;;;5033396;28;20036;-94
2021/06/12 09:47:44;;;;;;;0.20;0.10;;;42.00;1.00;;;;;;5033165;28;19905;-94
2021/06/12 09:50:12;;;;;;;0.28;0.17;;;41.50;1.00;;;;;;5032485;28;20026;-94
2021/06/12 09:52:44;;;;;;;0.35;0.28;;;42.90;1.00;;;;;;5032230;28;20084;-94
2021/06/12 09:55:27;;;;;;;0.17;0.17;;;41.70;1.00;;;;;;5048661;28;20052;-94
2021/06/12 09:57:54;;;;;;;0.20;0.10;;;40.80;1.00;;;;;;5032072;28;20083;-94
2021/06/12 10:00:30;;;;;;;1.27;0.55;;;40.40;1.00;;;;;;5032039;28;20497;-94
2021/06/12 10:02:57;;;;;;;0.10;0.10;;;40.50;1.00;;;;;;5032610;28;20051;-94
2021/06/12 10:05:25;;;;;;;0.22;0.20;;;41.00;1.00;;;;;;5032976;28;20403;-94
2021/06/12 10:07:51;;;;;;;0.25;0.25;;;41.30;1.00;;;;;;5033463;28;20108;-95
2021/06/12 10:10:17;;;;;;;;;;;43.60;1.00;;;;;;5033618;28;20098;-95
2021/06/12 10:12:43;;;;;;;1.95;0.30;;;43.50;1.00;;;;;;5033169;28;20374;-95
2021/06/12 10:15:11;;;;;;;0.20;0.20;;;41.90;1.00;;;;;;5032794;28;20490;-94
2021/06/12 10:17:48;;;;;;;0.32;0.32;;;40.30;1.00;;;;;;5032925;28;20021;-94
2021/06/12 10:20:16;;;;;;;0.40;0.40;;;42.50;1.00;;;;;;5032927;28;20026;-94
2021/06/12 10:22:46;;;;;;;0.55;0.22;;;41.50;1.00;;;;;;5032983;28;20029;-94
2021/06/12 10:25:14;;;;;;;0.10;0.10;;;40.40;1.00;;;;;;5032712;28;20033;-95
2021/06/12 10:27:42;;;;;;;1.85;0.30;;;39.90;1.00;;;;;;5032537;28;20029;-94
2021/06/12 10:30:10;;;;;;;0.28;0.17;;;39.40;1.00;;;;;;5032643;28;20514;-94
2021/06/12 10:32:42;;;;;;;0.40;0.40;;;38.70;1.00;;;;;;5032823;28;20021;-94
2021/06/12 10:35:09;;;;;;;0.40;0.30;;;39.90;1.00;;;;;;5032837;28;20037;-94
2021/06/12 10:37:54;;;;;;;0.32;0.32;;;38.60;1.00;;;;;;5032585;28;20033;-94
2021/06/12 10:40:56;;;;;;;0.60;0.40;;;38.80;1.00;;;;;;5048963;28;20040;-94
2021/06/12 10:43:27;;;;;;;1.35;0.80;;;40.90;1.00;;;;;;5032509;28;20025;-94
2021/06/12 10:46:02;;;;;;;0.25;0.25;;;40.40;1.00;;;;;;5032306;28;20028;-94
2021/06/12 10:48:46;;;;;;;0.45;0.20;;;39.30;1.00;;;;;;5048817;28;20475;-94
2021/06/12 10:51:33;;;;;;;0.30;0.30;;;38.60;1.00;;;;;;5032847;28;20482;-94
2021/06/12 10:54:12;;;;;;;0.10;0.10;;;39.50;1.00;;;;;;5032192;28;20037;-94
2021/06/12 10:56:43;;;;;;;0.40;0.30;;;41.80;1.00;;;;;;5048953;28;20021;-93
2021/06/12 10:59:09;;;;;;;0.40;0.10;;;41.80;1.00;;;;;;5032295;28;20037;-94
2021/06/12 11:01:36;;;;;;;0.30;0.28;;;41.50;1.00;;;;;;5032366;28;20056;-93
2021/06/12 11:09:17;;;;;;;0.20;0.20;;;38.20;1.00;;;;;;5033361;28;20063;-94
2021/06/12 11:11:51;;;;;;;0.00;0.00;;;37.30;1.00;;;;;;5048321;28;20025;-93
2021/06/12 11:14:23;;;;;;;0.25;0.03;;;38.00;1.00;;;;;;5031846;28;20033;-93
2021/06/12 11:17:10;;;;;;;0.45;0.38;;;39.00;1.00;;;;;;5048685;28;20495;-94
2021/06/12 11:19:40;;;;;;;0.20;0.20;;;38.80;1.00;;;;;;5048521;28;20040;-94
2021/06/12 11:22:35;;;;;;;0.17;0.17;;;37.00;1.00;;;;;;5032373;28;20021;-93
2021/06/12 11:25:12;;;;;;;0.08;0.08;;;36.60;1.00;;;;;;5049009;28;20479;-93
2021/06/12 11:27:44;;;;;;;0.20;0.20;;;37.00;1.00;;;;;;5052865;28;20402;-94
2021/06/12 11:32:56;;;;;;;0.20;0.15;;;32.90;1.00;;;;;;5037238;28;20387;-94
2021/06/12 11:35:40;;;;;;;0.30;0.15;;;30.90;3.30;;;;;;5052636;28;20022;-94
2021/06/12 11:38:11;;;;;;;0.08;0.08;;;29.80;5.00;;;;;;5052263;28;20029;-93
2021/06/12 11:40:38;;;;;;;0.43;0.40;;;29.90;5.10;;;;;;5052341;28;20491;-93
2021/06/12 11:43:05;;;;;;;0.13;0.13;;;30.00;5.50;;;;;;5052009;28;20072;-93
2021/06/12 11:45:34;;;;;;;0.10;0.10;;;30.10;6.90;;;;;;5035291;28;20026;-94
2021/06/12 11:48:20;;;;;;;0.10;0.10;;;30.10;6.40;;;;;;5035376;28;20037;-93
2021/06/12 11:50:46;;;;;;;0.20;0.20;;;30.40;5.90;;;;;;5035503;28;20084;-94
2021/06/12 11:53:16;;;;;;;0.20;0.20;;;29.40;6.90;;;;;;5035389;28;20029;-93
2021/06/12 11:55:42;;;;;;;0.75;0.40;;;29.90;9.00;;;;;;5035381;28;20041;-93
2021/06/12 11:58:08;;;;;;;0.35;0.32;;;29.50;10.80;;;;;;5035107;28;20072;-93
2021/06/12 12:00:45;;;;;;;0.10;0.10;;;29.40;11.60;;;;;;5035405;28;20029;-93
2021/06/12 12:03:16;;;;;;;0.00;0.00;;;29.50;11.90;;;;;;5035376;28;20069;-94
2021/06/12 12:05:43;;;;;;;2.08;1.10;;;29.80;11.20;;;;;;5035255;28;20064;-93
2021/06/12 12:08:16;;;;;;;0.10;0.10;;;30.10;10.80;;;;;;5051192;28;20021;-93
2021/06/12 12:10:45;;;;;;;0.20;0.20;;;29.70;12.00;;;;;;5034744;28;20107;-93
2021/06/12 12:13:25;;;;;;;0.00;0.00;;;29.70;12.50;;;;;;5034126;28;20037;-94
2021/06/12 12:15:51;;;;;;;0.20;0.20;;;29.80;11.90;;;;;;5034408;28;20033;-93
2021/06/12 12:18:17;;;;;;;3.45;1.20;;;30.00;12.70;;;;;;5034185;28;20029;-93
2021/06/12 12:20:46;;;;;;;0.20;0.20;;;29.70;13.80;;;;;;5034646;28;20040;-94
2021/06/12 12:23:26;;;;;;;0.30;0.30;;;29.80;13.00;;;;;;5034588;28;20017;-93
2021/06/12 12:26:10;;;;;;;0.22;0.22;;;29.90;13.40;;;;;;5034691;28;20548;-93
2021/06/12 12:28:56;;;;;;;0.28;0.28;;;29.50;14.10;;;;;;5034661;28;20025;-93
2021/06/12 12:31:24;;;;;;;0.28;0.20;;;29.40;23.20;;;;;;5051810;28;20076;-94
2021/06/12 12:33:52;;;;;;;1.10;0.30;;;29.70;13.70;;;;;;5035199;28;20033;-93
2021/06/12 12:36:19;;;;;;;0.30;0.30;;;29.70;12.90;;;;;;5034401;28;20030;-94
2021/06/12 12:39:03;;;;;;;0.30;0.30;;;29.70;13.70;;;;;;5034939;28;20391;-94
2021/06/12 12:41:30;;;;;;;0.08;0.08;;;30.00;14.20;;;;;;5035050;28;20395;-93
2021/06/12 12:44:07;;;;;;;0.40;0.20;;;29.80;14.50;;;;;;5034881;28;20103;-94
2021/06/12 12:46:33;;;;;;;0.00;0.00;;;29.60;14.00;;;;;;5034937;28;20021;-94
2021/06/12 12:48:59;;;;;;;;;;;29.80;14.30;;;;;;5035253;28;20029;-93
2021/06/12 12:51:26;;;;;;;0.20;0.20;;;30.00;15.00;;;;;;5034913;28;20007;-94
2021/06/12 12:53:52;;;;;;;0.22;0.22;;;29.60;15.40;;;;;;5034643;28;20091;-93
2021/06/12 12:56:18;;;;;;;0.20;0.20;;;29.40;15.40;;;;;;5034082;28;20021;-94
2021/06/12 12:58:50;;;;;;;0.52;0.40;;;29.60;15.10;;;;;;5034537;28;20041;-94
2021/06/12 13:01:17;;;;;;;0.08;0.08;;;29.50;16.20;;;;;;5034155;28;20029;-93
2021/06/12 13:03:44;;;;;;;0.50;0.50;;;29.50;25.30;;;;;;5034292;28;20048;-93
2021/06/12 13:06:37;;;;;;;0.22;0.22;;;29.30;17.10;;;;;;5051188;28;20128;-94
2021/06/12 13:09:10;;;;;;;0.70;0.60;;;29.60;16.10;;;;;;5034765;28;20030;-94
2021/06/12 13:11:54;;;;;;;0.10;0.10;;;29.10;15.80;;;;;;5034723;28;20079;-94